sensor_id;sensor_type;location;lat;lon;timestamp;P1;durP1;ratioP1;P2;durP2;ratioP2
23596;SDS011;40226;50.874;4.394;2023-02-28T00:00:23;16.42;;;11.07;;
23596;SDS011;40226;50.874;4.394;2023-02-28T00:02:49;19.92;;;11.65;;
23596;SDS011;40226;50.874;4.394;2023-02-28T00:05:16;21.65;;;11.25;;
23596;SDS011;40226;50.874;4.394;2023-02-28T00:07:43;16.92;;;10.93;;
23596;SDS011;40226;50.874;4.394;2023-02-28T00:10:10;19.65;;;11.80;;
23596;SDS011;40226;50.874;4.394;2023-02-28T00:12:38;19.73;;;11.02;;
23596;SDS011;40226;50.874;4.394;2023-02-28T00:15:08;17.52;;;11.10;;
23596;SDS011;40226;50.874;4.394;2023-02-28T00:17:34;18.98;;;11.15;;
23596;SDS011;40226;50.874;4.394;2023-02-28T00:20:00;17.48;;;10.93;;
23596;SDS011;40226;50.874;4.394;2023-02-28T00:22:37;18.60;;;11.23;;
23596;SDS011;40226;50.874;4.394;2023-02-28T00:25:04;22.42;;;11.20;;
23596;SDS011;40226;50.874;4.394;2023-02-28T00:27:31;18.35;;;11.38;;
23596;SDS011;40226;50.874;4.394;2023-02-28T00:29:57;23.30;;;11.98;;
23596;SDS011;40226;50.874;4.394;2023-02-28T00:32:23;16.98;;;11.23;;
23596;SDS011;40226;50.874;4.394;2023-02-28T00:34:48;18.98;;;11.70;;
23596;SDS011;40226;50.874;4.394;2023-02-28T00:37:14;15.63;;;11.00;;
23596;SDS011;40226;50.874;4.394;2023-02-28T00:39:40;18.05;;;10.98;;
23596;SDS011;40226;50.874;4.394;2023-02-28T00:42:06;18.10;;;10.88;;
23596;SDS011;40226;50.874;4.394;2023-02-28T00:44:32;16.83;;;11.55;;
23596;SDS011;40226;50.874;4.394;2023-02-28T00:46:58;18.20;;;10.65;;
23596;SDS011;40226;50.874;4.394;2023-02-28T00:49:25;22.48;;;11.68;;
23596;SDS011;40226;50.874;4.394;2023-02-28T00:51:51;20.42;;;11.43;;
23596;SDS011;40226;50.874;4.394;2023-02-28T00:54:17;20.02;;;13.13;;
23596;SDS011;40226;50.874;4.394;2023-02-28T00:56:44;18.70;;;12.75;;
23596;SDS011;40226;50.874;4.394;2023-02-28T00:59:11;20.48;;;12.30;;
23596;SDS011;40226;50.874;4.394;2023-02-28T01:01:37;19.48;;;12.02;;
23596;SDS011;40226;50.874;4.394;2023-02-28T01:04:02;19.98;;;11.77;;
23596;SDS011;40226;50.874;4.394;2023-02-28T01:06:28;18.25;;;11.93;;
23596;SDS011;40226;50.874;4.394;2023-02-28T01:08:54;18.55;;;11.88;;
23596;SDS011;40226;50.874;4.394;2023-02-28T01:11:19;19.52;;;11.77;;
23596;SDS011;40226;50.874;4.394;2023-02-28T01:13:45;19.92;;;12.65;;
23596;SDS011;40226;50.874;4.394;2023-02-28T01:16:12;17.67;;;12.20;;
23596;SDS011;40226;50.874;4.394;2023-02-28T01:18:39;16.40;;;11.60;;
23596;SDS011;40226;50.874;4.394;2023-02-28T01:21:05;17.85;;;12.55;;
23596;SDS011;40226;50.874;4.394;2023-02-28T01:23:32;20.10;;;11.77;;
23596;SDS011;40226;50.874;4.394;2023-02-28T01:26:03;22.13;;;12.05;;
23596;SDS011;40226;50.874;4.394;2023-02-28T01:28:30;22.45;;;12.77;;
23596;SDS011;40226;50.874;4.394;2023-02-28T01:30:56;21.42;;;13.00;;
23596;SDS011;40226;50.874;4.394;2023-02-28T01:33:21;19.25;;;12.40;;
23596;SDS011;40226;50.874;4.394;2023-02-28T01:35:47;18.38;;;12.35;;
23596;SDS011;40226;50.874;4.394;2023-02-28T01:38:13;20.48;;;12.68;;
23596;SDS011;40226;50.874;4.394;2023-02-28T01:40:39;20.13;;;13.70;;
23596;SDS011;40226;50.874;4.394;2023-02-28T01:43:07;17.58;;;12.80;;
23596;SDS011;40226;50.874;4.394;2023-02-28T01:45:46;21.77;;;13.50;;
23596;SDS011;40226;50.874;4.394;2023-02-28T01:48:12;18.40;;;12.30;;
23596;SDS011;40226;50.874;4.394;2023-02-28T01:50:39;20.90;;;12.93;;
23596;SDS011;40226;50.874;4.394;2023-02-28T01:53:10;20.58;;;13.57;;
23596;SDS011;40226;50.874;4.394;2023-02-28T01:55:41;19.77;;;12.67;;
23596;SDS011;40226;50.874;4.394;2023-02-28T01:58:10;18.58;;;13.35;;
23596;SDS011;40226;50.874;4.394;2023-02-28T02:00:36;22.83;;;13.52;;
23596;SDS011;40226;50.874;4.394;2023-02-28T02:03:08;23.15;;;14.52;;
23596;SDS011;40226;50.874;4.394;2023-02-28T02:05:36;21.08;;;13.77;;
23596;SDS011;40226;50.874;4.394;2023-02-28T02:08:07;24.67;;;14.30;;
23596;SDS011;40226;50.874;4.394;2023-02-28T02:10:39;20.60;;;13.73;;
23596;SDS011;40226;50.874;4.394;2023-02-28T02:13:14;26.50;;;14.05;;
23596;SDS011;40226;50.874;4.394;2023-02-28T02:28:40;23.13;;;14.65;;
23596;SDS011;40226;50.874;4.394;2023-02-28T02:31:16;22.17;;;14.52;;
23596;SDS011;40226;50.874;4.394;2023-02-28T02:34:03;23.48;;;14.20;;
23596;SDS011;40226;50.874;4.394;2023-02-28T02:36:48;26.30;;;15.30;;
23596;SDS011;40226;50.874;4.394;2023-02-28T02:39:31;21.10;;;15.20;;
23596;SDS011;40226;50.874;4.394;2023-02-28T02:42:13;24.55;;;15.70;;
23596;SDS011;40226;50.874;4.394;2023-02-28T02:47:24;27.58;;;14.20;;
23596;SDS011;40226;50.874;4.394;2023-02-28T02:49:54;25.80;;;14.80;;
23596;SDS011;40226;50.874;4.394;2023-02-28T02:52:22;29.25;;;15.65;;
23596;SDS011;40226;50.874;4.394;2023-02-28T02:54:53;25.23;;;15.45;;
23596;SDS011;40226;50.874;4.394;2023-02-28T02:57:23;23.17;;;15.02;;
23596;SDS011;40226;50.874;4.394;2023-02-28T02:59:57;24.15;;;15.48;;
23596;SDS011;40226;50.874;4.394;2023-02-28T03:02:25;27.73;;;16.80;;
23596;SDS011;40226;50.874;4.394;2023-02-28T03:04:53;26.85;;;15.93;;
23596;SDS011;40226;50.874;4.394;2023-02-28T03:07:25;29.08;;;16.08;;
23596;SDS011;40226;50.874;4.394;2023-02-28T03:09:52;28.23;;;16.58;;
23596;SDS011;40226;50.874;4.394;2023-02-28T03:12:19;26.30;;;15.70;;
23596;SDS011;40226;50.874;4.394;2023-02-28T03:20:33;31.25;;;17.33;;
23596;SDS011;40226;50.874;4.394;2023-02-28T03:23:19;26.23;;;15.63;;
23596;SDS011;40226;50.874;4.394;2023-02-28T03:26:06;27.55;;;16.77;;
23596;SDS011;40226;50.874;4.394;2023-02-28T03:28:48;26.98;;;16.02;;
23596;SDS011;40226;50.874;4.394;2023-02-28T03:31:56;29.08;;;17.08;;
23596;SDS011;40226;50.874;4.394;2023-02-28T03:34:37;29.75;;;17.33;;
23596;SDS011;40226;50.874;4.394;2023-02-28T03:37:11;29.52;;;17.15;;
23596;SDS011;40226;50.874;4.394;2023-02-28T03:39:43;27.92;;;16.83;;
23596;SDS011;40226;50.874;4.394;2023-02-28T03:42:15;29.87;;;17.80;;
23596;SDS011;40226;50.874;4.394;2023-02-28T03:44:46;35.78;;;17.52;;
23596;SDS011;40226;50.874;4.394;2023-02-28T03:47:21;30.05;;;17.00;;
23596;SDS011;40226;50.874;4.394;2023-02-28T03:52:36;34.72;;;18.38;;
23596;SDS011;40226;50.874;4.394;2023-02-28T03:55:08;31.42;;;17.67;;
23596;SDS011;40226;50.874;4.394;2023-02-28T04:00:12;28.35;;;18.33;;
23596;SDS011;40226;50.874;4.394;2023-02-28T04:02:43;31.38;;;17.45;;
23596;SDS011;40226;50.874;4.394;2023-02-28T04:05:09;28.65;;;18.05;;
23596;SDS011;40226;50.874;4.394;2023-02-28T04:07:34;31.23;;;19.20;;
23596;SDS011;40226;50.874;4.394;2023-02-28T04:10:01;32.58;;;18.80;;
23596;SDS011;40226;50.874;4.394;2023-02-28T04:12:26;27.95;;;18.33;;
23596;SDS011;40226;50.874;4.394;2023-02-28T04:14:52;26.83;;;17.23;;
23596;SDS011;40226;50.874;4.394;2023-02-28T04:17:17;28.98;;;17.65;;
23596;SDS011;40226;50.874;4.394;2023-02-28T04:19:43;32.97;;;18.13;;
23596;SDS011;40226;50.874;4.394;2023-02-28T04:22:09;31.27;;;18.13;;
23596;SDS011;40226;50.874;4.394;2023-02-28T04:24:35;33.20;;;18.38;;
23596;SDS011;40226;50.874;4.394;2023-02-28T04:27:02;35.75;;;18.48;;
23596;SDS011;40226;50.874;4.394;2023-02-28T04:29:31;31.50;;;18.70;;
23596;SDS011;40226;50.874;4.394;2023-02-28T04:31:57;33.05;;;19.25;;
23596;SDS011;40226;50.874;4.394;2023-02-28T04:34:24;33.47;;;19.30;;
23596;SDS011;40226;50.874;4.394;2023-02-28T04:36:51;32.15;;;19.90;;
23596;SDS011;40226;50.874;4.394;2023-02-28T04:39:19;33.75;;;19.60;;
23596;SDS011;40226;50.874;4.394;2023-02-28T04:41:45;32.75;;;19.75;;
23596;SDS011;40226;50.874;4.394;2023-02-28T04:44:11;30.55;;;18.38;;
23596;SDS011;40226;50.874;4.394;2023-02-28T04:46:37;32.70;;;19.20;;
23596;SDS011;40226;50.874;4.394;2023-02-28T04:49:02;31.75;;;19.58;;
23596;SDS011;40226;50.874;4.394;2023-02-28T04:51:28;32.15;;;19.27;;
23596;SDS011;40226;50.874;4.394;2023-02-28T04:53:54;36.85;;;19.58;;
23596;SDS011;40226;50.874;4.394;2023-02-28T04:56:20;31.63;;;19.13;;
23596;SDS011;40226;50.874;4.394;2023-02-28T04:58:46;30.00;;;19.17;;
23596;SDS011;40226;50.874;4.394;2023-02-28T05:03:49;32.83;;;18.77;;
23596;SDS011;40226;50.874;4.394;2023-02-28T05:06:16;32.47;;;19.30;;
23596;SDS011;40226;50.874;4.394;2023-02-28T05:08:42;30.98;;;18.30;;
23596;SDS011;40226;50.874;4.394;2023-02-28T05:14:09;30.60;;;18.05;;
23596;SDS011;40226;50.874;4.394;2023-02-28T05:16:35;29.48;;;19.80;;
23596;SDS011;40226;50.874;4.394;2023-02-28T05:19:01;38.88;;;19.70;;
23596;SDS011;40226;50.874;4.394;2023-02-28T05:21:28;32.88;;;19.30;;
23596;SDS011;40226;50.874;4.394;2023-02-28T05:23:56;32.97;;;20.23;;
23596;SDS011;40226;50.874;4.394;2023-02-28T05:26:25;30.58;;;18.88;;
23596;SDS011;40226;50.874;4.394;2023-02-28T05:28:50;33.10;;;20.55;;
23596;SDS011;40226;50.874;4.394;2023-02-28T05:31:17;33.42;;;17.52;;
23596;SDS011;40226;50.874;4.394;2023-02-28T05:33:43;27.25;;;18.42;;
23596;SDS011;40226;50.874;4.394;2023-02-28T05:36:09;30.88;;;19.20;;
23596;SDS011;40226;50.874;4.394;2023-02-28T05:38:34;27.40;;;17.80;;
23596;SDS011;40226;50.874;4.394;2023-02-28T05:41:04;33.20;;;19.13;;
23596;SDS011;40226;50.874;4.394;2023-02-28T05:43:31;28.85;;;18.20;;
23596;SDS011;40226;50.874;4.394;2023-02-28T05:45:57;37.33;;;19.00;;
23596;SDS011;40226;50.874;4.394;2023-02-28T05:48:22;28.17;;;18.05;;
23596;SDS011;40226;50.874;4.394;2023-02-28T05:50:48;30.98;;;18.42;;
23596;SDS011;40226;50.874;4.394;2023-02-28T05:53:13;38.97;;;22.67;;
23596;SDS011;40226;50.874;4.394;2023-02-28T05:55:39;32.78;;;18.40;;
23596;SDS011;40226;50.874;4.394;2023-02-28T05:58:06;28.23;;;17.88;;
23596;SDS011;40226;50.874;4.394;2023-02-28T06:00:31;27.65;;;17.75;;
23596;SDS011;40226;50.874;4.394;2023-02-28T06:02:57;30.50;;;17.60;;
23596;SDS011;40226;50.874;4.394;2023-02-28T06:05:26;27.65;;;17.38;;
23596;SDS011;40226;50.874;4.394;2023-02-28T06:07:52;28.83;;;17.80;;
23596;SDS011;40226;50.874;4.394;2023-02-28T06:10:18;25.83;;;17.23;;
23596;SDS011;40226;50.874;4.394;2023-02-28T06:12:44;34.08;;;17.38;;
23596;SDS011;40226;50.874;4.394;2023-02-28T06:15:14;39.65;;;18.35;;
23596;SDS011;40226;50.874;4.394;2023-02-28T06:17:41;31.10;;;18.67;;
23596;SDS011;40226;50.874;4.394;2023-02-28T06:20:08;33.15;;;18.05;;
23596;SDS011;40226;50.874;4.394;2023-02-28T06:22:35;35.35;;;18.30;;
23596;SDS011;40226;50.874;4.394;2023-02-28T06:25:01;30.27;;;17.05;;
23596;SDS011;40226;50.874;4.394;2023-02-28T06:27:31;30.25;;;18.23;;
23596;SDS011;40226;50.874;4.394;2023-02-28T06:29:57;29.85;;;18.17;;
23596;SDS011;40226;50.874;4.394;2023-02-28T06:32:23;27.27;;;17.50;;
23596;SDS011;40226;50.874;4.394;2023-02-28T06:34:48;31.08;;;16.95;;
23596;SDS011;40226;50.874;4.394;2023-02-28T06:37:15;29.23;;;18.25;;
23596;SDS011;40226;50.874;4.394;2023-02-28T06:39:41;29.67;;;16.77;;
23596;SDS011;40226;50.874;4.394;2023-02-28T06:42:07;31.40;;;17.88;;
23596;SDS011;40226;50.874;4.394;2023-02-28T06:44:32;30.48;;;16.92;;
23596;SDS011;40226;50.874;4.394;2023-02-28T06:46:59;31.48;;;17.65;;
23596;SDS011;40226;50.874;4.394;2023-02-28T06:49:28;24.85;;;16.55;;
23596;SDS011;40226;50.874;4.394;2023-02-28T06:51:54;29.23;;;17.75;;
23596;SDS011;40226;50.874;4.394;2023-02-28T06:54:20;29.15;;;16.15;;
23596;SDS011;40226;50.874;4.394;2023-02-28T06:56:45;26.80;;;15.63;;
23596;SDS011;40226;50.874;4.394;2023-02-28T06:59:13;26.35;;;16.33;;
23596;SDS011;40226;50.874;4.394;2023-02-28T07:01:39;29.38;;;17.13;;
23596;SDS011;40226;50.874;4.394;2023-02-28T07:04:06;29.23;;;17.17;;
23596;SDS011;40226;50.874;4.394;2023-02-28T07:06:32;34.55;;;17.38;;
23596;SDS011;40226;50.874;4.394;2023-02-28T07:08:57;26.60;;;17.00;;
23596;SDS011;40226;50.874;4.394;2023-02-28T07:11:24;28.63;;;16.50;;
23596;SDS011;40226;50.874;4.394;2023-02-28T07:13:51;27.50;;;16.48;;
23596;SDS011;40226;50.874;4.394;2023-02-28T07:16:21;29.83;;;16.65;;
23596;SDS011;40226;50.874;4.394;2023-02-28T07:18:48;27.33;;;15.73;;
23596;SDS011;40226;50.874;4.394;2023-02-28T07:21:14;27.10;;;15.50;;
23596;SDS011;40226;50.874;4.394;2023-02-28T07:23:40;28.40;;;15.77;;
23596;SDS011;40226;50.874;4.394;2023-02-28T07:26:07;30.90;;;16.27;;
23596;SDS011;40226;50.874;4.394;2023-02-28T07:28:39;27.40;;;16.38;;
23596;SDS011;40226;50.874;4.394;2023-02-28T07:31:09;27.25;;;16.65;;
23596;SDS011;40226;50.874;4.394;2023-02-28T07:33:35;28.17;;;16.58;;
23596;SDS011;40226;50.874;4.394;2023-02-28T07:36:03;26.70;;;16.08;;
23596;SDS011;40226;50.874;4.394;2023-02-28T07:38:30;26.92;;;16.05;;
23596;SDS011;40226;50.874;4.394;2023-02-28T07:40:58;25.92;;;15.38;;
23596;SDS011;40226;50.874;4.394;2023-02-28T07:43:23;25.23;;;15.27;;
23596;SDS011;40226;50.874;4.394;2023-02-28T07:45:49;29.67;;;15.52;;
23596;SDS011;40226;50.874;4.394;2023-02-28T07:48:14;24.63;;;15.07;;
23596;SDS011;40226;50.874;4.394;2023-02-28T07:50:40;25.25;;;17.20;;
23596;SDS011;40226;50.874;4.394;2023-02-28T07:53:06;22.85;;;14.30;;
23596;SDS011;40226;50.874;4.394;2023-02-28T07:55:31;23.52;;;13.85;;
23596;SDS011;40226;50.874;4.394;2023-02-28T07:57:57;24.05;;;13.85;;
23596;SDS011;40226;50.874;4.394;2023-02-28T08:00:23;23.35;;;12.88;;
23596;SDS011;40226;50.874;4.394;2023-02-28T08:02:49;21.48;;;12.40;;
23596;SDS011;40226;50.874;4.394;2023-02-28T08:05:14;22.08;;;11.73;;
23596;SDS011;40226;50.874;4.394;2023-02-28T08:07:40;20.58;;;12.43;;
23596;SDS011;40226;50.874;4.394;2023-02-28T08:10:06;22.23;;;11.20;;
23596;SDS011;40226;50.874;4.394;2023-02-28T08:12:33;18.77;;;10.70;;
23596;SDS011;40226;50.874;4.394;2023-02-28T08:14:59;17.40;;;10.77;;
23596;SDS011;40226;50.874;4.394;2023-02-28T08:17:24;18.23;;;10.85;;
23596;SDS011;40226;50.874;4.394;2023-02-28T08:19:50;15.98;;;10.73;;
23596;SDS011;40226;50.874;4.394;2023-02-28T08:22:15;17.48;;;10.32;;
23596;SDS011;40226;50.874;4.394;2023-02-28T08:24:41;16.77;;;10.35;;
23596;SDS011;40226;50.874;4.394;2023-02-28T08:27:08;20.83;;;8.88;;
23596;SDS011;40226;50.874;4.394;2023-02-28T08:29:36;12.98;;;9.32;;
23596;SDS011;40226;50.874;4.394;2023-02-28T08:32:03;18.48;;;9.45;;
23596;SDS011;40226;50.874;4.394;2023-02-28T08:34:29;14.35;;;8.93;;
23596;SDS011;40226;50.874;4.394;2023-02-28T08:36:55;14.10;;;9.02;;
23596;SDS011;40226;50.874;4.394;2023-02-28T08:39:20;12.13;;;8.50;;
23596;SDS011;40226;50.874;4.394;2023-02-28T08:41:46;18.77;;;8.52;;
23596;SDS011;40226;50.874;4.394;2023-02-28T08:44:11;14.25;;;7.50;;
23596;SDS011;40226;50.874;4.394;2023-02-28T08:46:37;11.50;;;7.20;;
23596;SDS011;40226;50.874;4.394;2023-02-28T08:49:03;15.30;;;7.50;;
23596;SDS011;40226;50.874;4.394;2023-02-28T08:51:28;13.43;;;7.53;;
23596;SDS011;40226;50.874;4.394;2023-02-28T08:53:56;12.63;;;7.45;;
23596;SDS011;40226;50.874;4.394;2023-02-28T08:56:25;11.85;;;7.03;;
23596;SDS011;40226;50.874;4.394;2023-02-28T08:58:53;16.00;;;8.20;;
23596;SDS011;40226;50.874;4.394;2023-02-28T09:01:25;11.32;;;7.90;;
23596;SDS011;40226;50.874;4.394;2023-02-28T09:03:55;15.07;;;7.88;;
23596;SDS011;40226;50.874;4.394;2023-02-28T09:06:22;13.63;;;8.05;;
23596;SDS011;40226;50.874;4.394;2023-02-28T09:08:49;13.15;;;8.38;;
23596;SDS011;40226;50.874;4.394;2023-02-28T09:11:16;18.63;;;7.18;;
23596;SDS011;40226;50.874;4.394;2023-02-28T09:13:43;10.82;;;7.10;;
23596;SDS011;40226;50.874;4.394;2023-02-28T09:16:10;15.25;;;7.22;;
23596;SDS011;40226;50.874;4.394;2023-02-28T09:18:38;12.43;;;7.15;;
23596;SDS011;40226;50.874;4.394;2023-02-28T09:21:12;13.57;;;7.35;;
23596;SDS011;40226;50.874;4.394;2023-02-28T09:23:39;10.13;;;7.05;;
23596;SDS011;40226;50.874;4.394;2023-02-28T09:26:06;13.75;;;7.15;;
23596;SDS011;40226;50.874;4.394;2023-02-28T09:28:32;9.20;;;6.75;;
23596;SDS011;40226;50.874;4.394;2023-02-28T09:30:57;14.20;;;6.65;;
23596;SDS011;40226;50.874;4.394;2023-02-28T09:33:24;11.75;;;6.80;;
23596;SDS011;40226;50.874;4.394;2023-02-28T09:35:53;9.88;;;6.68;;
23596;SDS011;40226;50.874;4.394;2023-02-28T09:38:25;11.05;;;6.35;;
23596;SDS011;40226;50.874;4.394;2023-02-28T09:40:58;10.25;;;6.32;;
23596;SDS011;40226;50.874;4.394;2023-02-28T09:43:26;51.90;;;20.45;;
23596;SDS011;40226;50.874;4.394;2023-02-28T09:46:05;10.98;;;5.70;;
23596;SDS011;40226;50.874;4.394;2023-02-28T09:48:45;9.27;;;6.00;;
23596;SDS011;40226;50.874;4.394;2023-02-28T09:56:39;9.85;;;6.22;;
23596;SDS011;40226;50.874;4.394;2023-02-28T10:01:57;9.48;;;6.50;;
23596;SDS011;40226;50.874;4.394;2023-02-28T10:04:46;7.03;;;5.88;;
23596;SDS011;40226;50.874;4.394;2023-02-28T10:10:01;8.73;;;6.18;;
23596;SDS011;40226;50.874;4.394;2023-02-28T10:12:39;10.82;;;5.93;;
23596;SDS011;40226;50.874;4.394;2023-02-28T10:15:12;10.40;;;5.88;;
23596;SDS011;40226;50.874;4.394;2023-02-28T10:17:40;9.55;;;5.68;;
23596;SDS011;40226;50.874;4.394;2023-02-28T10:20:12;8.57;;;5.72;;
23596;SDS011;40226;50.874;4.394;2023-02-28T10:22:50;7.60;;;5.72;;
23596;SDS011;40226;50.874;4.394;2023-02-28T10:25:32;7.18;;;4.85;;
23596;SDS011;40226;50.874;4.394;2023-02-28T10:28:01;6.15;;;4.95;;
23596;SDS011;40226;50.874;4.394;2023-02-28T10:30:38;5.53;;;4.10;;
23596;SDS011;40226;50.874;4.394;2023-02-28T10:33:10;5.05;;;3.30;;
23596;SDS011;40226;50.874;4.394;2023-02-28T10:35:49;8.68;;;4.07;;
23596;SDS011;40226;50.874;4.394;2023-02-28T10:38:17;6.95;;;3.75;;
23596;SDS011;40226;50.874;4.394;2023-02-28T10:40:45;6.00;;;3.95;;
23596;SDS011;40226;50.874;4.394;2023-02-28T10:45:39;7.05;;;4.18;;
23596;SDS011;40226;50.874;4.394;2023-02-28T10:53:22;4.88;;;3.65;;
23596;SDS011;40226;50.874;4.394;2023-02-28T11:01:25;4.97;;;3.47;;
23596;SDS011;40226;50.874;4.394;2023-02-28T11:04:14;6.75;;;3.58;;
23596;SDS011;40226;50.874;4.394;2023-02-28T11:06:47;4.22;;;3.50;;
23596;SDS011;40226;50.874;4.394;2023-02-28T11:09:27;6.72;;;3.58;;
23596;SDS011;40226;50.874;4.394;2023-02-28T11:12:04;9.45;;;4.05;;
23596;SDS011;40226;50.874;4.394;2023-02-28T11:14:34;10.13;;;4.90;;
23596;SDS011;40226;50.874;4.394;2023-02-28T11:17:19;6.68;;;4.07;;
23596;SDS011;40226;50.874;4.394;2023-02-28T11:19:50;4.70;;;3.88;;
23596;SDS011;40226;50.874;4.394;2023-02-28T11:22:19;7.60;;;3.50;;
23596;SDS011;40226;50.874;4.394;2023-02-28T11:24:47;7.80;;;3.50;;
23596;SDS011;40226;50.874;4.394;2023-02-28T11:27:26;11.35;;;3.80;;
23596;SDS011;40226;50.874;4.394;2023-02-28T11:30:02;8.40;;;4.00;;
23596;SDS011;40226;50.874;4.394;2023-02-28T11:32:29;6.03;;;3.97;;
23596;SDS011;40226;50.874;4.394;2023-02-28T11:37:29;5.93;;;4.05;;
23596;SDS011;40226;50.874;4.394;2023-02-28T11:39:56;6.57;;;4.00;;
23596;SDS011;40226;50.874;4.394;2023-02-28T11:45:15;5.90;;;3.55;;
23596;SDS011;40226;50.874;4.394;2023-02-28T12:09:44;6.85;;;4.65;;
23596;SDS011;40226;50.874;4.394;2023-02-28T12:20:52;6.03;;;3.83;;
23596;SDS011;40226;50.874;4.394;2023-02-28T12:28:44;5.97;;;4.68;;
23596;SDS011;40226;50.874;4.394;2023-02-28T12:31:17;7.57;;;3.97;;
23596;SDS011;40226;50.874;4.394;2023-02-28T12:33:54;6.95;;;4.50;;
23596;SDS011;40226;50.874;4.394;2023-02-28T12:36:26;6.15;;;4.53;;
23596;SDS011;40226;50.874;4.394;2023-02-28T12:39:10;7.40;;;3.70;;
23596;SDS011;40226;50.874;4.394;2023-02-28T12:41:54;8.48;;;4.18;;
23596;SDS011;40226;50.874;4.394;2023-02-28T12:44:32;5.75;;;3.83;;
23596;SDS011;40226;50.874;4.394;2023-02-28T12:47:28;4.35;;;3.72;;
23596;SDS011;40226;50.874;4.394;2023-02-28T12:49:55;6.15;;;3.80;;
23596;SDS011;40226;50.874;4.394;2023-02-28T12:52:46;5.40;;;3.88;;
23596;SDS011;40226;50.874;4.394;2023-02-28T13:04:14;5.07;;;3.70;;
23596;SDS011;40226;50.874;4.394;2023-02-28T13:09:51;8.20;;;3.40;;
23596;SDS011;40226;50.874;4.394;2023-02-28T13:12:21;7.72;;;3.78;;
23596;SDS011;40226;50.874;4.394;2023-02-28T13:14:48;5.88;;;4.03;;
23596;SDS011;40226;50.874;4.394;2023-02-28T13:17:18;7.50;;;4.13;;
23596;SDS011;40226;50.874;4.394;2023-02-28T13:19:55;5.32;;;4.03;;
23596;SDS011;40226;50.874;4.394;2023-02-28T13:22:42;6.05;;;4.10;;
23596;SDS011;40226;50.874;4.394;2023-02-28T13:25:55;8.38;;;6.50;;
23596;SDS011;40226;50.874;4.394;2023-02-28T13:28:03;5.78;;;3.55;;
23596;SDS011;40226;50.874;4.394;2023-02-28T13:33:31;5.82;;;3.80;;
23596;SDS011;40226;50.874;4.394;2023-02-28T13:38:46;5.75;;;3.72;;
23596;SDS011;40226;50.874;4.394;2023-02-28T13:44:01;5.88;;;4.00;;
23596;SDS011;40226;50.874;4.394;2023-02-28T13:46:30;6.88;;;4.03;;
23596;SDS011;40226;50.874;4.394;2023-02-28T13:49:17;5.68;;;3.90;;
23596;SDS011;40226;50.874;4.394;2023-02-28T13:51:44;4.93;;;3.90;;
23596;SDS011;40226;50.874;4.394;2023-02-28T13:59:51;6.00;;;4.07;;
23596;SDS011;40226;50.874;4.394;2023-02-28T14:05:06;7.13;;;4.47;;
23596;SDS011;40226;50.874;4.394;2023-02-28T14:08:25;8.23;;;4.10;;
23596;SDS011;40226;50.874;4.394;2023-02-28T14:10:48;5.95;;;4.03;;
23596;SDS011;40226;50.874;4.394;2023-02-28T14:23:49;5.45;;;3.85;;
23596;SDS011;40226;50.874;4.394;2023-02-28T14:32:28;5.45;;;4.20;;
23596;SDS011;40226;50.874;4.394;2023-02-28T14:38:21;6.70;;;4.25;;
23596;SDS011;40226;50.874;4.394;2023-02-28T14:40:51;8.05;;;3.90;;
23596;SDS011;40226;50.874;4.394;2023-02-28T14:43:23;6.75;;;3.97;;
23596;SDS011;40226;50.874;4.394;2023-02-28T14:45:54;7.50;;;4.55;;
23596;SDS011;40226;50.874;4.394;2023-02-28T14:48:22;7.20;;;5.00;;
23596;SDS011;40226;50.874;4.394;2023-02-28T14:50:54;8.07;;;5.13;;
23596;SDS011;40226;50.874;4.394;2023-02-28T14:53:22;9.95;;;5.10;;
23596;SDS011;40226;50.874;4.394;2023-02-28T14:55:50;6.70;;;5.28;;
23596;SDS011;40226;50.874;4.394;2023-02-28T15:00:54;7.57;;;5.13;;
23596;SDS011;40226;50.874;4.394;2023-02-28T15:03:38;7.68;;;5.72;;
23596;SDS011;40226;50.874;4.394;2023-02-28T15:06:16;9.85;;;5.90;;
23596;SDS011;40226;50.874;4.394;2023-02-28T15:08:43;8.93;;;5.97;;
23596;SDS011;40226;50.874;4.394;2023-02-28T15:13:40;8.27;;;5.60;;
23596;SDS011;40226;50.874;4.394;2023-02-28T15:18:53;9.70;;;5.95;;
23596;SDS011;40226;50.874;4.394;2023-02-28T15:21:39;9.77;;;5.78;;
23596;SDS011;40226;50.874;4.394;2023-02-28T15:24:18;8.60;;;5.60;;
23596;SDS011;40226;50.874;4.394;2023-02-28T15:27:06;13.13;;;6.07;;
23596;SDS011;40226;50.874;4.394;2023-02-28T15:29:57;9.48;;;5.90;;
23596;SDS011;40226;50.874;4.394;2023-02-28T15:32:27;8.43;;;6.13;;
23596;SDS011;40226;50.874;4.394;2023-02-28T15:34:54;7.68;;;6.00;;
23596;SDS011;40226;50.874;4.394;2023-02-28T15:37:38;7.90;;;5.32;;
23596;SDS011;40226;50.874;4.394;2023-02-28T15:40:16;7.63;;;5.32;;
23596;SDS011;40226;50.874;4.394;2023-02-28T15:43:06;10.20;;;5.63;;
23596;SDS011;40226;50.874;4.394;2023-02-28T15:45:46;10.18;;;6.10;;
23596;SDS011;40226;50.874;4.394;2023-02-28T15:48:21;8.30;;;6.00;;
23596;SDS011;40226;50.874;4.394;2023-02-28T15:50:52;11.63;;;5.88;;
23596;SDS011;40226;50.874;4.394;2023-02-28T15:53:22;10.70;;;6.03;;
23596;SDS011;40226;50.874;4.394;2023-02-28T15:55:54;8.82;;;6.22;;
23596;SDS011;40226;50.874;4.394;2023-02-28T15:58:28;15.80;;;6.38;;
23596;SDS011;40226;50.874;4.394;2023-02-28T16:01:03;9.07;;;6.30;;
23596;SDS011;40226;50.874;4.394;2023-02-28T16:03:43;8.32;;;5.60;;
23596;SDS011;40226;50.874;4.394;2023-02-28T16:06:23;9.02;;;5.90;;
23596;SDS011;40226;50.874;4.394;2023-02-28T16:08:50;7.07;;;5.28;;
23596;SDS011;40226;50.874;4.394;2023-02-28T16:11:16;10.95;;;6.10;;
23596;SDS011;40226;50.874;4.394;2023-02-28T16:13:43;9.85;;;5.15;;
23596;SDS011;40226;50.874;4.394;2023-02-28T16:16:14;11.63;;;6.05;;
23596;SDS011;40226;50.874;4.394;2023-02-28T16:18:44;10.50;;;5.90;;
23596;SDS011;40226;50.874;4.394;2023-02-28T16:21:10;8.70;;;5.78;;
23596;SDS011;40226;50.874;4.394;2023-02-28T16:23:35;10.68;;;6.07;;
23596;SDS011;40226;50.874;4.394;2023-02-28T16:26:02;9.18;;;5.78;;
23596;SDS011;40226;50.874;4.394;2023-02-28T16:28:38;9.32;;;5.82;;
23596;SDS011;40226;50.874;4.394;2023-02-28T16:31:05;8.95;;;5.68;;
23596;SDS011;40226;50.874;4.394;2023-02-28T16:33:32;12.07;;;5.70;;
23596;SDS011;40226;50.874;4.394;2023-02-28T16:35:58;9.68;;;6.20;;
23596;SDS011;40226;50.874;4.394;2023-02-28T16:38:25;11.60;;;6.38;;
23596;SDS011;40226;50.874;4.394;2023-02-28T16:40:51;10.65;;;5.70;;
23596;SDS011;40226;50.874;4.394;2023-02-28T16:43:19;13.02;;;6.82;;
23596;SDS011;40226;50.874;4.394;2023-02-28T16:45:47;12.57;;;6.10;;
23596;SDS011;40226;50.874;4.394;2023-02-28T16:48:15;9.68;;;5.80;;
23596;SDS011;40226;50.874;4.394;2023-02-28T16:50:41;6.30;;;5.32;;
23596;SDS011;40226;50.874;4.394;2023-02-28T16:53:09;11.55;;;5.95;;
23596;SDS011;40226;50.874;4.394;2023-02-28T16:55:35;8.23;;;5.50;;
23596;SDS011;40226;50.874;4.394;2023-02-28T16:58:01;10.18;;;5.70;;
23596;SDS011;40226;50.874;4.394;2023-02-28T17:00:29;10.45;;;6.50;;
23596;SDS011;40226;50.874;4.394;2023-02-28T17:02:56;12.90;;;6.68;;
23596;SDS011;40226;50.874;4.394;2023-02-28T17:05:24;8.07;;;5.97;;
23596;SDS011;40226;50.874;4.394;2023-02-28T17:07:50;7.72;;;5.88;;
23596;SDS011;40226;50.874;4.394;2023-02-28T17:10:22;10.95;;;5.53;;
23596;SDS011;40226;50.874;4.394;2023-02-28T17:12:51;10.02;;;6.93;;
23596;SDS011;40226;50.874;4.394;2023-02-28T17:15:18;8.77;;;5.82;;
23596;SDS011;40226;50.874;4.394;2023-02-28T17:17:45;9.68;;;5.25;;
23596;SDS011;40226;50.874;4.394;2023-02-28T17:20:15;10.20;;;5.65;;